createdAt,value
2017-05-31T00:02:12.564Z,20.30
2017-05-31T00:04:40.859Z,20.30
2017-05-31T00:07:09.179Z,20.20
2017-05-31T00:09:37.491Z,20.10
2017-05-31T00:12:05.790Z,20.00
2017-05-31T00:14:34.113Z,19.90
2017-05-31T00:17:02.404Z,19.70
2017-05-31T00:19:30.731Z,19.60
2017-05-31T00:21:59.151Z,19.60
2017-05-31T00:24:27.454Z,19.50
2017-05-31T00:26:55.770Z,19.30
2017-05-31T00:29:24.076Z,19.20
2017-05-31T00:31:52.404Z,19.20
2017-05-31T00:34:20.707Z,19.20
2017-05-31T00:36:49.008Z,19.40
2017-05-31T00:39:17.322Z,19.40
2017-05-31T00:41:45.618Z,19.40
2017-05-31T00:44:13.962Z,19.60
2017-05-31T00:46:42.271Z,19.60
2017-05-31T00:49:10.574Z,19.60
2017-05-31T00:51:38.893Z,19.60
2017-05-31T00:54:07.190Z,19.60
2017-05-31T00:56:35.530Z,19.60
2017-05-31T00:59:03.827Z,19.50
2017-05-31T01:01:32.129Z,19.50
2017-05-31T01:04:00.451Z,19.50
2017-05-31T01:06:28.750Z,19.40
2017-05-31T01:08:57.074Z,19.30
2017-05-31T01:11:25.379Z,19.20
2017-05-31T01:13:53.701Z,19.10
2017-05-31T01:16:22.007Z,19.00
2017-05-31T01:18:50.318Z,18.90
2017-05-31T01:21:18.641Z,18.80
2017-05-31T01:23:46.946Z,18.70
2017-05-31T01:26:15.265Z,18.60
2017-05-31T01:28:43.580Z,18.60
2017-05-31T01:31:11.879Z,18.70
2017-05-31T01:33:40.191Z,18.70
2017-05-31T01:36:08.490Z,18.70
2017-05-31T01:38:36.826Z,18.80
2017-05-31T01:41:05.157Z,18.80
2017-05-31T01:43:33.458Z,18.80
2017-05-31T01:46:01.780Z,18.80
2017-05-31T01:48:30.087Z,18.70
2017-05-31T01:50:58.413Z,18.70
2017-05-31T01:53:26.715Z,18.60
2017-05-31T01:55:55.020Z,18.50
2017-05-31T01:58:23.346Z,18.60
2017-05-31T02:00:51.647Z,18.60
2017-05-31T02:03:19.974Z,18.60
2017-05-31T02:05:48.270Z,18.70
2017-05-31T02:08:16.577Z,18.70
2017-05-31T02:10:44.891Z,18.70
2017-05-31T02:13:13.194Z,18.60
2017-05-31T02:15:41.518Z,18.50
2017-05-31T02:18:09.818Z,18.40
2017-05-31T02:20:38.123Z,18.20
2017-05-31T02:23:06.452Z,18.20
2017-05-31T02:25:34.746Z,18.10
2017-05-31T02:28:03.072Z,18.00
2017-05-31T02:30:31.391Z,17.90
2017-05-31T02:32:59.687Z,17.90
2017-05-31T02:35:28.023Z,17.90
2017-05-31T02:37:56.324Z,17.80
2017-05-31T02:40:24.631Z,17.90
2017-05-31T02:42:52.950Z,17.90
2017-05-31T02:45:21.250Z,17.90
2017-05-31T02:47:49.553Z,17.90
2017-05-31T02:50:17.874Z,17.90
2017-05-31T02:52:46.170Z,17.80
2017-05-31T02:55:14.492Z,17.80
2017-05-31T02:57:42.809Z,17.70
2017-05-31T03:00:10.341Z,17.70
2017-05-31T03:02:38.678Z,17.50
2017-05-31T03:05:06.974Z,17.50
2017-05-31T03:07:35.277Z,17.40
2017-05-31T03:10:03.594Z,17.40
2017-05-31T03:12:31.898Z,17.40
2017-05-31T03:15:00.223Z,17.40
2017-05-31T03:17:28.533Z,17.40
2017-05-31T03:19:56.848Z,17.50
2017-05-31T03:22:25.170Z,17.50
2017-05-31T03:24:53.477Z,17.60
2017-05-31T03:27:21.063Z,17.60
2017-05-31T03:29:49.366Z,17.80
2017-05-31T03:32:17.666Z,18.00
2017-05-31T03:34:45.989Z,18.10
2017-05-31T03:37:14.289Z,18.20
2017-05-31T03:39:42.611Z,18.20
2017-05-31T03:42:10.920Z,18.40
2017-05-31T03:44:39.242Z,18.50
2017-05-31T03:47:07.541Z,18.60
2017-05-31T03:49:35.851Z,18.70
2017-05-31T03:52:04.179Z,18.80
2017-05-31T03:54:32.486Z,19.00
2017-05-31T03:57:00.819Z,19.10
2017-05-31T03:59:29.179Z,19.20
2017-05-31T04:01:57.476Z,19.30
2017-05-31T04:04:25.806Z,19.20
2017-05-31T04:06:54.118Z,19.20
2017-05-31T04:09:22.454Z,19.20
2017-05-31T04:11:50.766Z,19.30
2017-05-31T04:14:19.082Z,19.30
2017-05-31T04:16:47.402Z,19.40
2017-05-31T04:19:15.725Z,19.60
2017-05-31T04:21:44.061Z,19.70
2017-05-31T04:24:12.367Z,20.00
2017-05-31T04:26:40.693Z,21.20
2017-05-31T04:29:09.014Z,23.10
2017-05-31T04:31:37.322Z,25.10
2017-05-31T04:34:05.654Z,27.60
2017-05-31T04:36:33.957Z,30.00
2017-05-31T04:39:02.275Z,30.80
2017-05-31T04:41:30.609Z,31.40
2017-05-31T04:43:58.913Z,32.20
2017-05-31T04:46:27.254Z,33.00
2017-05-31T04:48:55.571Z,33.70
2017-05-31T04:51:23.870Z,33.40
2017-05-31T04:53:52.182Z,31.60
2017-05-31T04:56:20.483Z,28.70
2017-05-31T04:58:48.802Z,27.60
2017-05-31T05:01:17.103Z,27.00
2017-05-31T05:03:45.405Z,26.70
2017-05-31T05:06:13.739Z,26.10
2017-05-31T05:08:42.054Z,25.30
2017-05-31T05:11:10.377Z,25.00
2017-05-31T05:13:38.678Z,24.60
2017-05-31T05:16:06.995Z,24.70
2017-05-31T05:18:35.314Z,24.60
2017-05-31T05:21:03.623Z,24.60
2017-05-31T05:23:31.951Z,25.00
2017-05-31T05:26:00.262Z,25.20
2017-05-31T05:28:28.574Z,27.50
2017-05-31T05:30:56.904Z,31.40
2017-05-31T05:33:26.367Z,34.30
2017-05-31T05:35:54.703Z,34.70
2017-05-31T05:38:23.005Z,33.70
2017-05-31T05:40:51.306Z,32.00
2017-05-31T05:43:19.628Z,29.40
2017-05-31T05:45:47.930Z,27.60
2017-05-31T05:48:16.286Z,27.30
2017-05-31T05:50:44.590Z,29.00
2017-05-31T05:53:12.895Z,30.40
2017-05-31T05:55:41.215Z,31.70
2017-05-31T05:58:09.604Z,34.30
2017-05-31T06:00:37.935Z,36.60
2017-05-31T06:03:06.226Z,38.90
2017-05-31T06:05:34.523Z,38.10
2017-05-31T06:08:02.839Z,38.70
2017-05-31T06:10:31.182Z,38.80
2017-05-31T06:12:59.505Z,39.00
2017-05-31T06:15:27.816Z,38.30
2017-05-31T06:17:56.118Z,39.00
2017-05-31T06:20:24.432Z,40.10
2017-05-31T06:22:52.727Z,39.60
2017-05-31T06:25:21.081Z,38.20
2017-05-31T06:27:49.374Z,37.60
2017-05-31T06:30:17.683Z,37.70
2017-05-31T06:32:46.010Z,38.10
2017-05-31T06:35:14.314Z,38.50
2017-05-31T06:37:42.634Z,38.10
2017-05-31T06:40:10.938Z,37.60
2017-05-31T06:42:39.253Z,37.40
2017-05-31T06:45:07.545Z,36.70
2017-05-31T06:47:35.839Z,36.00
2017-05-31T06:50:04.161Z,35.30
2017-05-31T06:52:32.503Z,34.10
2017-05-31T06:55:00.816Z,33.10
2017-05-31T06:57:29.111Z,32.20
2017-05-31T06:59:57.406Z,31.20
2017-05-31T07:05:04.810Z,30.10
2017-05-31T07:07:33.106Z,29.30
2017-05-31T07:10:01.419Z,28.50
2017-05-31T07:12:29.739Z,28.00
2017-05-31T07:20:13.700Z,29.40
2017-05-31T07:25:20.012Z,29.30
2017-05-31T07:27:48.343Z,28.60
2017-05-31T07:30:18.862Z,28.50
2017-05-31T07:32:47.169Z,28.60
2017-05-31T07:35:15.481Z,28.40
2017-05-31T07:37:43.831Z,28.30
2017-05-31T07:40:12.148Z,28.30
2017-05-31T07:42:40.443Z,28.50
2017-05-31T07:45:08.743Z,28.50
2017-05-31T07:47:37.069Z,28.60
2017-05-31T07:50:05.382Z,28.80
2017-05-31T07:52:33.679Z,28.60
2017-05-31T07:55:01.987Z,28.80
2017-05-31T07:57:30.363Z,29.20
2017-05-31T07:59:58.670Z,28.90
2017-05-31T08:02:26.971Z,27.80
2017-05-31T08:04:55.295Z,27.00
2017-05-31T08:07:25.050Z,26.30
2017-05-31T08:09:53.374Z,26.40
2017-05-31T08:12:21.717Z,26.90
2017-05-31T08:14:50.017Z,27.60
2017-05-31T08:17:18.302Z,28.30
2017-05-31T08:19:46.618Z,29.10
2017-05-31T08:22:14.919Z,29.10
2017-05-31T08:24:43.258Z,29.20
2017-05-31T08:27:11.550Z,29.10
2017-05-31T08:29:39.842Z,28.90
2017-05-31T08:32:08.158Z,28.80
2017-05-31T08:34:36.443Z,28.70
2017-05-31T08:37:04.770Z,28.80
2017-05-31T08:39:33.071Z,28.70
2017-05-31T08:42:01.366Z,28.80
2017-05-31T08:44:29.679Z,29.10
2017-05-31T08:46:57.973Z,30.30
2017-05-31T08:49:25.936Z,30.30
2017-05-31T08:51:54.250Z,31.80
2017-05-31T08:54:22.538Z,32.10
2017-05-31T08:56:50.852Z,31.70
2017-05-31T08:59:19.151Z,30.10
2017-05-31T09:01:47.482Z,28.60
2017-05-31T09:04:15.781Z,28.20
2017-05-31T09:06:44.078Z,28.00
2017-05-31T09:09:12.397Z,28.50
2017-05-31T09:11:40.698Z,29.40
2017-05-31T09:14:09.020Z,30.00
2017-05-31T09:16:37.314Z,29.70
2017-05-31T09:19:05.610Z,29.40
2017-05-31T09:21:33.928Z,29.00
2017-05-31T09:24:02.228Z,29.00
2017-05-31T09:26:30.536Z,28.80
2017-05-31T09:28:59.119Z,29.30
2017-05-31T09:31:27.416Z,29.40
2017-05-31T09:33:55.726Z,30.40
2017-05-31T09:36:24.023Z,30.90
2017-05-31T09:38:52.353Z,31.10
2017-05-31T09:41:20.667Z,31.10
2017-05-31T09:43:48.958Z,31.40
2017-05-31T09:46:17.285Z,31.80
2017-05-31T09:48:45.589Z,32.00
2017-05-31T09:51:13.903Z,30.80
2017-05-31T09:53:42.198Z,30.30
2017-05-31T09:56:10.947Z,30.80
2017-05-31T09:58:39.278Z,30.90
2017-05-31T10:01:07.586Z,31.40
2017-05-31T10:03:35.917Z,32.10
2017-05-31T10:06:04.230Z,31.90
2017-05-31T10:08:32.532Z,31.50
2017-05-31T10:11:00.853Z,31.00
2017-05-31T10:13:29.146Z,30.90
2017-05-31T10:15:57.462Z,30.60
2017-05-31T10:18:25.751Z,30.60
2017-05-31T10:20:53.281Z,30.60
2017-05-31T10:23:21.585Z,31.40
2017-05-31T10:28:27.826Z,31.50
2017-05-31T10:30:56.130Z,31.40
2017-05-31T10:33:24.427Z,31.60
2017-05-31T10:35:52.752Z,32.10
2017-05-31T10:38:21.075Z,32.30
2017-05-31T10:40:49.377Z,32.10
2017-05-31T10:43:17.667Z,31.90
2017-05-31T10:45:45.975Z,32.00
2017-05-31T10:48:17.482Z,32.10
2017-05-31T10:50:45.795Z,31.50
2017-05-31T10:53:14.110Z,31.70
2017-05-31T10:55:42.448Z,31.50
2017-05-31T10:58:10.770Z,31.60
2017-05-31T11:00:39.065Z,32.20
2017-05-31T11:03:07.357Z,31.90
2017-05-31T11:05:35.671Z,31.80
2017-05-31T11:08:03.969Z,30.90
2017-05-31T11:10:32.283Z,30.30
2017-05-31T11:13:00.578Z,30.70
2017-05-31T11:15:28.874Z,31.40
2017-05-31T11:17:57.182Z,30.80
2017-05-31T11:20:25.475Z,30.90
2017-05-31T11:22:53.812Z,31.30
2017-05-31T11:25:22.151Z,31.20
2017-05-31T11:27:50.470Z,31.20
2017-05-31T11:30:18.792Z,30.90
2017-05-31T11:32:47.098Z,31.50
2017-05-31T11:35:15.423Z,31.20
2017-05-31T11:37:43.748Z,31.20
2017-05-31T11:40:12.042Z,31.60
2017-05-31T11:42:40.378Z,32.00
2017-05-31T11:45:08.676Z,31.70
2017-05-31T11:47:36.998Z,30.30
2017-05-31T11:50:05.302Z,29.60
2017-05-31T11:55:08.330Z,28.90
2017-05-31T11:57:36.630Z,29.00
2017-05-31T12:00:04.947Z,29.40
2017-05-31T12:02:33.252Z,29.80
2017-05-31T12:05:01.590Z,29.90
2017-05-31T12:07:29.984Z,30.00
2017-05-31T12:09:58.281Z,30.20
2017-05-31T12:12:26.593Z,30.30
2017-05-31T12:14:54.886Z,30.90
2017-05-31T12:17:23.184Z,31.30
2017-05-31T12:19:51.516Z,30.60
2017-05-31T12:22:19.874Z,29.50
2017-05-31T12:24:48.187Z,29.10
2017-05-31T12:27:16.487Z,29.20
2017-05-31T12:29:44.792Z,29.70
2017-05-31T12:32:13.106Z,29.40
2017-05-31T12:34:41.396Z,29.10
2017-05-31T12:37:09.714Z,29.60
2017-05-31T12:39:38.006Z,30.30
2017-05-31T12:42:06.298Z,31.00
2017-05-31T12:44:34.617Z,31.40
2017-05-31T12:47:02.930Z,30.80
2017-05-31T12:49:31.252Z,31.10
2017-05-31T12:51:59.566Z,31.80
2017-05-31T12:54:27.866Z,32.10
2017-05-31T12:56:56.179Z,32.40
2017-05-31T12:59:24.465Z,31.80
2017-05-31T13:01:52.813Z,31.60
2017-05-31T13:04:21.099Z,31.90
2017-05-31T13:06:49.394Z,31.80
2017-05-31T13:09:17.710Z,31.30
2017-05-31T13:11:46.006Z,30.80
2017-05-31T13:14:14.683Z,30.90
2017-05-31T13:16:42.978Z,31.30
2017-05-31T13:19:11.263Z,32.00
2017-05-31T13:21:39.583Z,32.40
2017-05-31T13:24:07.911Z,32.30
2017-05-31T13:26:36.260Z,32.60
2017-05-31T13:29:04.555Z,32.90
2017-05-31T13:31:32.847Z,32.20
2017-05-31T13:34:01.162Z,31.20
2017-05-31T13:36:29.471Z,30.60
2017-05-31T13:38:57.793Z,30.30
2017-05-31T13:41:26.098Z,30.10
2017-05-31T13:43:54.394Z,30.00
2017-05-31T13:46:22.703Z,29.80
2017-05-31T13:48:50.989Z,28.80
2017-05-31T13:51:19.310Z,28.50
2017-05-31T13:53:47.609Z,28.60
2017-05-31T13:56:15.917Z,28.80
2017-05-31T13:58:44.230Z,29.30
2017-05-31T14:01:12.522Z,29.10
2017-05-31T14:03:40.838Z,28.70
2017-05-31T14:06:09.142Z,28.80
2017-05-31T14:08:37.430Z,28.70
2017-05-31T14:11:05.751Z,28.90
2017-05-31T14:13:34.045Z,28.90
2017-05-31T14:16:02.336Z,28.70
2017-05-31T14:18:30.653Z,28.90
2017-05-31T14:20:58.951Z,29.00
2017-05-31T14:23:27.280Z,29.30
2017-05-31T14:25:55.574Z,30.00
2017-05-31T14:28:23.859Z,30.40
2017-05-31T14:30:52.162Z,30.40
2017-05-31T14:33:20.449Z,30.60
2017-05-31T14:35:48.761Z,29.80
2017-05-31T14:38:17.062Z,29.60
2017-05-31T14:40:45.350Z,29.90
2017-05-31T14:43:13.666Z,29.80
2017-05-31T14:45:41.963Z,29.70
2017-05-31T14:48:10.299Z,30.20
2017-05-31T14:50:38.593Z,29.90
2017-05-31T14:53:06.892Z,29.80
2017-05-31T14:55:35.193Z,29.80
2017-05-31T14:58:03.482Z,29.80
2017-05-31T15:00:31.806Z,29.50
2017-05-31T15:03:00.102Z,29.00
2017-05-31T15:05:28.399Z,29.00
2017-05-31T15:07:56.709Z,28.50
2017-05-31T15:10:25.001Z,28.80
2017-05-31T15:12:53.314Z,28.90
2017-05-31T15:15:21.608Z,28.70
2017-05-31T15:17:49.905Z,28.90
2017-05-31T15:20:18.217Z,28.50
2017-05-31T15:22:46.510Z,27.90
2017-05-31T15:25:14.817Z,27.80
2017-05-31T15:27:43.101Z,27.70
2017-05-31T15:30:11.391Z,28.10
2017-05-31T15:32:39.703Z,27.90
2017-05-31T15:35:07.990Z,28.00
2017-05-31T15:37:36.315Z,27.90
2017-05-31T15:40:04.607Z,27.80
2017-05-31T15:42:32.903Z,27.90
2017-05-31T15:45:01.212Z,28.00
2017-05-31T15:47:29.609Z,28.00
2017-05-31T15:49:57.946Z,28.00
2017-05-31T15:52:26.243Z,27.80
2017-05-31T15:54:54.540Z,27.70
2017-05-31T15:57:22.098Z,27.70
2017-05-31T15:59:50.386Z,27.30
2017-05-31T16:02:18.736Z,27.50
2017-05-31T16:04:47.036Z,27.70
2017-05-31T16:07:15.330Z,27.80
2017-05-31T16:09:43.638Z,28.10
2017-05-31T16:12:11.929Z,28.10
2017-05-31T16:14:40.246Z,28.10
2017-05-31T16:17:08.540Z,27.80
2017-05-31T16:19:36.834Z,27.80
2017-05-31T16:22:05.143Z,27.90
2017-05-31T16:24:33.441Z,27.60
2017-05-31T16:27:01.796Z,27.40
2017-05-31T16:29:30.086Z,27.00
2017-05-31T16:31:58.382Z,27.10
2017-05-31T16:34:26.702Z,27.10
2017-05-31T16:36:55.002Z,27.30
2017-05-31T16:39:23.317Z,27.40
2017-05-31T16:41:51.610Z,27.40
2017-05-31T16:44:19.914Z,27.20
2017-05-31T16:46:48.234Z,26.80
2017-05-31T16:49:16.523Z,26.60
2017-05-31T16:51:44.831Z,26.60
2017-05-31T16:54:13.129Z,26.60
2017-05-31T16:56:41.851Z,26.30
2017-05-31T16:59:10.187Z,26.20
2017-05-31T17:01:38.477Z,25.90
2017-05-31T17:04:06.789Z,25.80
2017-05-31T17:06:35.086Z,25.60
2017-05-31T17:09:03.382Z,25.50
2017-05-31T17:11:31.694Z,25.40
2017-05-31T17:13:59.988Z,25.20
2017-05-31T17:16:28.316Z,25.10
2017-05-31T17:18:56.610Z,24.90
2017-05-31T17:21:24.911Z,24.70
2017-05-31T17:23:53.226Z,24.70
2017-05-31T17:26:21.546Z,24.70
2017-05-31T17:28:49.872Z,24.50
2017-05-31T17:31:18.174Z,24.40
2017-05-31T17:33:46.480Z,24.40
2017-05-31T17:36:14.831Z,24.40
2017-05-31T17:38:43.164Z,24.40
2017-05-31T17:41:11.478Z,24.40
2017-05-31T17:43:39.770Z,24.50
2017-05-31T17:46:08.090Z,24.50
2017-05-31T17:48:36.387Z,24.40
2017-05-31T17:51:04.688Z,24.40
2017-05-31T17:53:33.020Z,24.30
2017-05-31T17:56:01.315Z,24.20
2017-05-31T17:58:29.656Z,24.00
2017-05-31T18:00:58.005Z,23.90
2017-05-31T18:03:26.306Z,23.80
2017-05-31T18:05:54.621Z,23.70
2017-05-31T18:08:22.922Z,23.50
2017-05-31T18:10:51.242Z,23.30
2017-05-31T18:13:19.542Z,23.10
2017-05-31T18:15:47.839Z,23.00
2017-05-31T18:18:16.146Z,23.00
2017-05-31T18:20:44.441Z,22.80
2017-05-31T18:23:12.763Z,22.70
2017-05-31T18:25:41.073Z,22.60
2017-05-31T18:30:47.235Z,22.40
2017-05-31T18:33:15.541Z,22.30
2017-05-31T18:35:43.853Z,22.20
2017-05-31T18:38:12.155Z,22.20
2017-05-31T18:40:40.454Z,22.10
2017-05-31T18:43:08.766Z,22.00
2017-05-31T18:45:37.064Z,21.90
2017-05-31T18:48:05.386Z,21.80
2017-05-31T18:50:33.686Z,21.70
2017-05-31T18:53:02.021Z,21.60
2017-05-31T18:55:30.334Z,21.50
2017-05-31T18:57:58.634Z,21.40
2017-05-31T19:00:26.954Z,21.30
2017-05-31T19:02:55.250Z,21.10
2017-05-31T19:05:23.542Z,21.10
2017-05-31T19:07:51.853Z,21.00
2017-05-31T19:10:20.146Z,21.00
2017-05-31T19:12:48.470Z,20.90
2017-05-31T19:15:16.758Z,20.80
2017-05-31T19:17:45.057Z,20.70
2017-05-31T19:20:13.371Z,20.60
2017-05-31T19:22:41.661Z,20.50
2017-05-31T19:25:09.978Z,20.60
2017-05-31T19:27:38.282Z,20.50
2017-05-31T19:30:06.581Z,20.50
2017-05-31T19:32:34.894Z,20.40
2017-05-31T19:35:03.191Z,20.40
2017-05-31T19:37:31.517Z,20.30
2017-05-31T19:39:59.814Z,20.20
2017-05-31T19:42:28.107Z,20.20
2017-05-31T19:44:56.417Z,20.10
2017-05-31T19:47:24.710Z,20.00
2017-05-31T19:49:53.018Z,20.00
2017-05-31T19:52:20.546Z,19.90
2017-05-31T19:54:48.861Z,19.90
2017-05-31T19:57:17.150Z,19.80
2017-05-31T19:59:45.454Z,19.80
2017-05-31T20:02:13.765Z,19.80
2017-05-31T20:04:42.062Z,19.80
2017-05-31T20:07:10.386Z,19.70
2017-05-31T20:09:38.690Z,19.70
2017-05-31T20:12:07.037Z,19.70
2017-05-31T20:14:35.346Z,19.60
2017-05-31T20:17:03.652Z,19.60
2017-05-31T20:19:31.978Z,19.50
2017-05-31T20:22:00.286Z,19.50
2017-05-31T20:24:28.586Z,19.50
2017-05-31T20:26:56.895Z,19.50
2017-05-31T20:29:25.202Z,19.50
2017-05-31T20:31:53.520Z,19.50
2017-05-31T20:34:21.821Z,19.40
2017-05-31T20:36:50.110Z,19.30
2017-05-31T20:39:18.439Z,19.20
2017-05-31T20:41:46.731Z,19.20
2017-05-31T20:44:15.062Z,19.10
2017-05-31T20:46:43.378Z,19.00
2017-05-31T20:49:11.679Z,18.90
2017-05-31T20:51:39.998Z,18.80
2017-05-31T20:54:08.316Z,18.70
2017-05-31T20:56:36.616Z,18.70
2017-05-31T20:59:04.939Z,18.60
2017-05-31T21:01:33.246Z,18.60
2017-05-31T21:04:01.559Z,18.60
2017-05-31T21:06:29.960Z,18.60
2017-05-31T21:08:58.270Z,18.50
2017-05-31T21:11:26.602Z,18.40
2017-05-31T21:13:54.915Z,18.30
2017-05-31T21:16:23.223Z,18.30
2017-05-31T21:18:51.532Z,18.20
2017-05-31T21:21:19.843Z,18.10
2017-05-31T21:23:48.174Z,17.90
2017-05-31T21:26:16.482Z,17.80
2017-05-31T21:28:44.795Z,17.70
2017-05-31T21:31:13.124Z,17.50
2017-05-31T21:33:41.427Z,17.40
2017-05-31T21:36:09.749Z,17.30
2017-05-31T21:38:38.046Z,17.30
2017-05-31T21:41:06.357Z,17.50
2017-05-31T21:43:34.694Z,17.40
2017-05-31T21:46:02.998Z,17.30
2017-05-31T21:48:31.323Z,17.20
2017-05-31T21:50:59.621Z,17.10
2017-05-31T21:53:27.921Z,17.00
2017-05-31T21:55:56.231Z,17.00
2017-05-31T21:58:24.546Z,17.00
2017-05-31T22:00:52.983Z,16.90
2017-05-31T22:03:21.295Z,16.90
2017-05-31T22:05:49.608Z,16.90
2017-05-31T22:08:17.941Z,16.90
2017-05-31T22:10:46.258Z,16.90
2017-05-31T22:13:14.578Z,16.90
2017-05-31T22:15:42.895Z,16.90
2017-05-31T22:18:11.225Z,17.00
2017-05-31T22:20:39.592Z,17.00
2017-05-31T22:23:07.941Z,16.90
2017-05-31T22:25:36.305Z,16.90
2017-05-31T22:28:04.619Z,16.80
2017-05-31T22:30:33.079Z,16.70
2017-05-31T22:33:01.432Z,16.60
2017-05-31T22:35:29.774Z,16.60
2017-05-31T22:37:58.122Z,16.60
2017-05-31T22:40:26.421Z,16.60
2017-05-31T22:42:54.722Z,16.70
2017-05-31T22:45:23.052Z,16.60
2017-05-31T22:47:51.373Z,16.70
2017-05-31T22:50:19.722Z,16.60
2017-05-31T22:52:48.031Z,16.60
2017-05-31T22:55:16.355Z,16.60
2017-05-31T22:57:44.680Z,16.60
2017-05-31T23:00:12.974Z,16.60
2017-05-31T23:02:41.351Z,16.50
2017-05-31T23:05:09.664Z,16.50
2017-05-31T23:07:38.018Z,16.40
2017-05-31T23:10:06.327Z,16.30
2017-05-31T23:12:34.624Z,16.30
2017-05-31T23:15:02.950Z,16.30
2017-05-31T23:17:31.245Z,16.30
2017-05-31T23:19:59.559Z,16.20
2017-05-31T23:22:27.872Z,16.20
2017-05-31T23:24:56.201Z,16.20
2017-05-31T23:27:24.519Z,16.20
2017-05-31T23:29:52.830Z,16.10
2017-05-31T23:32:21.118Z,16.10
2017-05-31T23:34:49.434Z,16.00
2017-05-31T23:37:17.735Z,16.00
2017-05-31T23:39:46.083Z,15.90
2017-05-31T23:42:14.392Z,15.80
2017-05-31T23:44:42.690Z,15.80
2017-05-31T23:47:10.997Z,15.60
2017-05-31T23:49:39.290Z,15.60
2017-05-31T23:52:07.607Z,15.50
2017-05-31T23:54:35.894Z,15.40
2017-05-31T23:57:04.185Z,15.30
2017-05-31T23:59:32.498Z,15.40
